sensor_id;sensor_type;location;lat;lon;timestamp;P1;durP1;ratioP1;P2;durP2;ratioP2
66175;SDS011;52977;44.816;20.538;2023-08-06T00:00:25;7.38;;;3.03;;
66175;SDS011;52977;44.816;20.538;2023-08-06T00:02:51;5.57;;;3.45;;
66175;SDS011;52977;44.816;20.538;2023-08-06T00:05:17;5.35;;;2.90;;
66175;SDS011;52977;44.816;20.538;2023-08-06T00:07:49;5.50;;;2.90;;
66175;SDS011;52977;44.816;20.538;2023-08-06T00:10:16;4.68;;;2.88;;
66175;SDS011;52977;44.816;20.538;2023-08-06T00:12:43;4.30;;;2.70;;
66175;SDS011;52977;44.816;20.538;2023-08-06T00:15:10;4.88;;;2.88;;
66175;SDS011;52977;44.816;20.538;2023-08-06T00:17:37;4.60;;;2.80;;
66175;SDS011;52977;44.816;20.538;2023-08-06T00:20:04;5.38;;;3.28;;
66175;SDS011;52977;44.816;20.538;2023-08-06T00:22:32;4.80;;;2.90;;
66175;SDS011;52977;44.816;20.538;2023-08-06T00:24:59;6.00;;;3.67;;
66175;SDS011;52977;44.816;20.538;2023-08-06T00:27:25;6.75;;;3.10;;
66175;SDS011;52977;44.816;20.538;2023-08-06T00:29:52;6.25;;;3.47;;
66175;SDS011;52977;44.816;20.538;2023-08-06T00:32:18;9.80;;;4.00;;
66175;SDS011;52977;44.816;20.538;2023-08-06T00:34:44;6.35;;;3.85;;
66175;SDS011;52977;44.816;20.538;2023-08-06T00:37:10;6.22;;;4.30;;
66175;SDS011;52977;44.816;20.538;2023-08-06T00:39:38;7.95;;;4.57;;
66175;SDS011;52977;44.816;20.538;2023-08-06T00:42:04;8.73;;;5.38;;
66175;SDS011;52977;44.816;20.538;2023-08-06T00:44:32;7.90;;;4.45;;
66175;SDS011;52977;44.816;20.538;2023-08-06T00:46:58;9.57;;;4.90;;
66175;SDS011;52977;44.816;20.538;2023-08-06T00:49:24;8.13;;;4.88;;
66175;SDS011;52977;44.816;20.538;2023-08-06T00:51:50;8.88;;;5.22;;
66175;SDS011;52977;44.816;20.538;2023-08-06T00:54:17;8.30;;;5.32;;
66175;SDS011;52977;44.816;20.538;2023-08-06T00:56:44;7.10;;;4.45;;
66175;SDS011;52977;44.816;20.538;2023-08-06T00:59:11;11.73;;;5.97;;
66175;SDS011;52977;44.816;20.538;2023-08-06T01:01:38;9.65;;;5.80;;
66175;SDS011;52977;44.816;20.538;2023-08-06T01:04:04;10.65;;;5.97;;
66175;SDS011;52977;44.816;20.538;2023-08-06T01:06:35;10.20;;;6.13;;
66175;SDS011;52977;44.816;20.538;2023-08-06T01:15:28;11.98;;;6.50;;
66175;SDS011;52977;44.816;20.538;2023-08-06T01:17:56;11.77;;;6.07;;
66175;SDS011;52977;44.816;20.538;2023-08-06T01:20:27;12.05;;;6.28;;
66175;SDS011;52977;44.816;20.538;2023-08-06T01:22:54;13.68;;;6.43;;
66175;SDS011;52977;44.816;20.538;2023-08-06T01:25:20;10.82;;;5.97;;
66175;SDS011;52977;44.816;20.538;2023-08-06T01:27:48;12.45;;;6.35;;
66175;SDS011;52977;44.816;20.538;2023-08-06T01:32:53;8.00;;;4.57;;
66175;SDS011;52977;44.816;20.538;2023-08-06T01:35:26;9.45;;;5.03;;
66175;SDS011;52977;44.816;20.538;2023-08-06T01:37:57;11.65;;;5.55;;
66175;SDS011;52977;44.816;20.538;2023-08-06T01:40:23;9.55;;;4.93;;
66175;SDS011;52977;44.816;20.538;2023-08-06T01:42:49;9.48;;;5.22;;
66175;SDS011;52977;44.816;20.538;2023-08-06T01:45:15;10.00;;;4.95;;
66175;SDS011;52977;44.816;20.538;2023-08-06T01:47:41;10.43;;;5.35;;
66175;SDS011;52977;44.816;20.538;2023-08-06T01:50:08;8.18;;;5.05;;
66175;SDS011;52977;44.816;20.538;2023-08-06T01:52:34;8.43;;;5.28;;
66175;SDS011;52977;44.816;20.538;2023-08-06T01:55:00;13.07;;;5.25;;
66175;SDS011;52977;44.816;20.538;2023-08-06T01:57:26;9.82;;;5.50;;
66175;SDS011;52977;44.816;20.538;2023-08-06T01:59:52;9.43;;;5.28;;
66175;SDS011;52977;44.816;20.538;2023-08-06T02:02:18;9.20;;;5.28;;
66175;SDS011;52977;44.816;20.538;2023-08-06T02:04:46;10.65;;;5.10;;
66175;SDS011;52977;44.816;20.538;2023-08-06T02:07:11;8.73;;;4.28;;
66175;SDS011;52977;44.816;20.538;2023-08-06T02:09:37;9.05;;;4.80;;
66175;SDS011;52977;44.816;20.538;2023-08-06T02:12:02;9.85;;;4.50;;
66175;SDS011;52977;44.816;20.538;2023-08-06T02:14:28;8.35;;;4.25;;
66175;SDS011;52977;44.816;20.538;2023-08-06T02:16:54;7.00;;;3.88;;
66175;SDS011;52977;44.816;20.538;2023-08-06T02:19:20;6.80;;;3.85;;
66175;SDS011;52977;44.816;20.538;2023-08-06T02:21:45;6.15;;;3.60;;
66175;SDS011;52977;44.816;20.538;2023-08-06T02:24:11;5.63;;;3.25;;
66175;SDS011;52977;44.816;20.538;2023-08-06T02:26:37;6.53;;;3.67;;
66175;SDS011;52977;44.816;20.538;2023-08-06T02:29:03;6.28;;;3.80;;
66175;SDS011;52977;44.816;20.538;2023-08-06T02:31:29;5.47;;;3.00;;
66175;SDS011;52977;44.816;20.538;2023-08-06T02:33:55;7.32;;;3.83;;
66175;SDS011;52977;44.816;20.538;2023-08-06T02:36:21;9.07;;;4.30;;
66175;SDS011;52977;44.816;20.538;2023-08-06T02:38:46;7.95;;;4.35;;
66175;SDS011;52977;44.816;20.538;2023-08-06T02:41:12;7.22;;;3.63;;
66175;SDS011;52977;44.816;20.538;2023-08-06T02:43:38;8.68;;;3.55;;
66175;SDS011;52977;44.816;20.538;2023-08-06T02:46:04;7.75;;;3.65;;
66175;SDS011;52977;44.816;20.538;2023-08-06T02:48:29;6.07;;;3.30;;
66175;SDS011;52977;44.816;20.538;2023-08-06T02:50:58;5.38;;;2.80;;
66175;SDS011;52977;44.816;20.538;2023-08-06T02:53:26;4.55;;;2.40;;
66175;SDS011;52977;44.816;20.538;2023-08-06T02:55:52;5.47;;;2.17;;
66175;SDS011;52977;44.816;20.538;2023-08-06T02:58:23;5.28;;;3.00;;
66175;SDS011;52977;44.816;20.538;2023-08-06T03:01:02;5.82;;;2.33;;
66175;SDS011;52977;44.816;20.538;2023-08-06T03:03:55;5.50;;;2.42;;
66175;SDS011;52977;44.816;20.538;2023-08-06T03:06:27;5.22;;;2.70;;
66175;SDS011;52977;44.816;20.538;2023-08-06T03:08:55;5.20;;;2.47;;
66175;SDS011;52977;44.816;20.538;2023-08-06T03:11:21;6.03;;;2.40;;
66175;SDS011;52977;44.816;20.538;2023-08-06T03:13:50;3.80;;;2.20;;
66175;SDS011;52977;44.816;20.538;2023-08-06T03:16:16;5.18;;;2.45;;
66175;SDS011;52977;44.816;20.538;2023-08-06T03:18:43;5.72;;;2.22;;
66175;SDS011;52977;44.816;20.538;2023-08-06T03:21:09;5.72;;;2.83;;
66175;SDS011;52977;44.816;20.538;2023-08-06T03:23:36;4.55;;;2.35;;
66175;SDS011;52977;44.816;20.538;2023-08-06T03:26:04;6.75;;;2.40;;
66175;SDS011;52977;44.816;20.538;2023-08-06T03:28:31;3.60;;;1.98;;
66175;SDS011;52977;44.816;20.538;2023-08-06T03:31:01;4.22;;;2.20;;
66175;SDS011;52977;44.816;20.538;2023-08-06T03:33:40;4.60;;;2.15;;
66175;SDS011;52977;44.816;20.538;2023-08-06T03:36:12;6.20;;;2.70;;
66175;SDS011;52977;44.816;20.538;2023-08-06T03:38:38;4.05;;;2.20;;
66175;SDS011;52977;44.816;20.538;2023-08-06T03:41:06;5.10;;;2.50;;
66175;SDS011;52977;44.816;20.538;2023-08-06T03:43:33;6.88;;;2.28;;
66175;SDS011;52977;44.816;20.538;2023-08-06T03:46:00;3.83;;;2.10;;
66175;SDS011;52977;44.816;20.538;2023-08-06T03:48:27;3.97;;;1.98;;
66175;SDS011;52977;44.816;20.538;2023-08-06T03:50:53;4.20;;;1.98;;
66175;SDS011;52977;44.816;20.538;2023-08-06T03:53:21;3.92;;;2.00;;
66175;SDS011;52977;44.816;20.538;2023-08-06T03:55:47;4.78;;;2.05;;
66175;SDS011;52977;44.816;20.538;2023-08-06T03:58:13;4.40;;;1.83;;
66175;SDS011;52977;44.816;20.538;2023-08-06T04:00:40;5.28;;;2.13;;
66175;SDS011;52977;44.816;20.538;2023-08-06T04:03:06;4.20;;;1.88;;
66175;SDS011;52977;44.816;20.538;2023-08-06T04:05:32;5.47;;;2.13;;
66175;SDS011;52977;44.816;20.538;2023-08-06T04:07:58;5.93;;;2.33;;
66175;SDS011;52977;44.816;20.538;2023-08-06T04:10:25;4.25;;;2.28;;
66175;SDS011;52977;44.816;20.538;2023-08-06T04:12:51;5.03;;;2.10;;
66175;SDS011;52977;44.816;20.538;2023-08-06T04:15:17;3.80;;;2.03;;
66175;SDS011;52977;44.816;20.538;2023-08-06T04:17:42;3.67;;;1.98;;
66175;SDS011;52977;44.816;20.538;2023-08-06T04:20:08;4.70;;;2.30;;
66175;SDS011;52977;44.816;20.538;2023-08-06T04:22:34;6.13;;;2.25;;
66175;SDS011;52977;44.816;20.538;2023-08-06T04:24:59;6.80;;;2.20;;
66175;SDS011;52977;44.816;20.538;2023-08-06T04:27:25;5.95;;;2.00;;
66175;SDS011;52977;44.816;20.538;2023-08-06T04:29:51;3.90;;;2.30;;
66175;SDS011;52977;44.816;20.538;2023-08-06T04:32:16;4.10;;;2.00;;
66175;SDS011;52977;44.816;20.538;2023-08-06T04:37:13;4.07;;;1.70;;
66175;SDS011;52977;44.816;20.538;2023-08-06T04:39:39;4.95;;;1.90;;
66175;SDS011;52977;44.816;20.538;2023-08-06T04:42:05;5.13;;;2.30;;
66175;SDS011;52977;44.816;20.538;2023-08-06T04:44:31;3.53;;;1.92;;
66175;SDS011;52977;44.816;20.538;2023-08-06T04:46:57;3.33;;;1.85;;
66175;SDS011;52977;44.816;20.538;2023-08-06T04:49:23;5.80;;;1.90;;
66175;SDS011;52977;44.816;20.538;2023-08-06T04:51:50;4.05;;;1.88;;
66175;SDS011;52977;44.816;20.538;2023-08-06T04:54:17;5.35;;;2.00;;
66175;SDS011;52977;44.816;20.538;2023-08-06T04:56:43;3.63;;;1.65;;
66175;SDS011;52977;44.816;20.538;2023-08-06T04:59:09;3.58;;;1.85;;
66175;SDS011;52977;44.816;20.538;2023-08-06T05:01:35;4.43;;;1.70;;
66175;SDS011;52977;44.816;20.538;2023-08-06T05:04:01;3.80;;;1.65;;
66175;SDS011;52977;44.816;20.538;2023-08-06T05:06:26;3.72;;;2.03;;
66175;SDS011;52977;44.816;20.538;2023-08-06T05:08:52;4.78;;;1.80;;
66175;SDS011;52977;44.816;20.538;2023-08-06T05:11:18;5.93;;;2.30;;
66175;SDS011;52977;44.816;20.538;2023-08-06T05:13:43;4.75;;;1.98;;
66175;SDS011;52977;44.816;20.538;2023-08-06T05:16:09;5.43;;;2.42;;
66175;SDS011;52977;44.816;20.538;2023-08-06T05:18:34;7.85;;;2.40;;
66175;SDS011;52977;44.816;20.538;2023-08-06T05:21:00;5.45;;;2.45;;
66175;SDS011;52977;44.816;20.538;2023-08-06T05:23:25;6.07;;;2.50;;
66175;SDS011;52977;44.816;20.538;2023-08-06T05:25:51;5.53;;;2.65;;
66175;SDS011;52977;44.816;20.538;2023-08-06T05:28:16;4.53;;;2.60;;
66175;SDS011;52977;44.816;20.538;2023-08-06T05:30:42;7.50;;;2.95;;
66175;SDS011;52977;44.816;20.538;2023-08-06T05:33:08;6.95;;;3.17;;
66175;SDS011;52977;44.816;20.538;2023-08-06T05:35:33;7.95;;;3.67;;
66175;SDS011;52977;44.816;20.538;2023-08-06T05:37:59;5.93;;;3.45;;
66175;SDS011;52977;44.816;20.538;2023-08-06T05:40:25;6.25;;;3.40;;
66175;SDS011;52977;44.816;20.538;2023-08-06T05:42:53;5.30;;;3.00;;
66175;SDS011;52977;44.816;20.538;2023-08-06T05:45:19;5.05;;;3.05;;
66175;SDS011;52977;44.816;20.538;2023-08-06T05:47:45;7.75;;;3.80;;
66175;SDS011;52977;44.816;20.538;2023-08-06T05:50:11;5.88;;;3.50;;
66175;SDS011;52977;44.816;20.538;2023-08-06T05:52:36;8.52;;;4.80;;
66175;SDS011;52977;44.816;20.538;2023-08-06T05:55:02;10.90;;;4.75;;
66175;SDS011;52977;44.816;20.538;2023-08-06T05:57:28;7.82;;;4.18;;
66175;SDS011;52977;44.816;20.538;2023-08-06T05:59:54;11.25;;;5.45;;
66175;SDS011;52977;44.816;20.538;2023-08-06T06:02:20;9.50;;;5.88;;
66175;SDS011;52977;44.816;20.538;2023-08-06T06:04:45;9.00;;;5.00;;
66175;SDS011;52977;44.816;20.538;2023-08-06T06:07:11;9.23;;;5.18;;
66175;SDS011;52977;44.816;20.538;2023-08-06T06:09:37;10.95;;;5.50;;
66175;SDS011;52977;44.816;20.538;2023-08-06T06:12:02;10.02;;;5.85;;
66175;SDS011;52977;44.816;20.538;2023-08-06T06:14:28;11.00;;;6.68;;
66175;SDS011;52977;44.816;20.538;2023-08-06T06:16:53;9.93;;;5.50;;
66175;SDS011;52977;44.816;20.538;2023-08-06T06:19:19;12.00;;;7.05;;
66175;SDS011;52977;44.816;20.538;2023-08-06T06:21:45;11.30;;;6.22;;
66175;SDS011;52977;44.816;20.538;2023-08-06T06:24:10;10.50;;;6.50;;
66175;SDS011;52977;44.816;20.538;2023-08-06T06:26:36;10.85;;;6.72;;
66175;SDS011;52977;44.816;20.538;2023-08-06T06:29:02;16.02;;;8.07;;
66175;SDS011;52977;44.816;20.538;2023-08-06T06:31:27;15.13;;;8.65;;
66175;SDS011;52977;44.816;20.538;2023-08-06T06:33:53;13.63;;;7.60;;
66175;SDS011;52977;44.816;20.538;2023-08-06T06:36:19;12.77;;;7.70;;
66175;SDS011;52977;44.816;20.538;2023-08-06T06:38:45;13.55;;;7.40;;
66175;SDS011;52977;44.816;20.538;2023-08-06T06:41:11;15.30;;;9.10;;
66175;SDS011;52977;44.816;20.538;2023-08-06T06:43:37;12.85;;;8.13;;
66175;SDS011;52977;44.816;20.538;2023-08-06T06:46:05;15.93;;;8.38;;
66175;SDS011;52977;44.816;20.538;2023-08-06T06:48:31;13.73;;;7.70;;
66175;SDS011;52977;44.816;20.538;2023-08-06T06:50:58;14.07;;;8.02;;
66175;SDS011;52977;44.816;20.538;2023-08-06T06:53:24;14.40;;;8.40;;
66175;SDS011;52977;44.816;20.538;2023-08-06T06:55:55;13.57;;;8.13;;
66175;SDS011;52977;44.816;20.538;2023-08-06T06:58:22;15.05;;;8.93;;
66175;SDS011;52977;44.816;20.538;2023-08-06T07:00:48;14.45;;;8.50;;
66175;SDS011;52977;44.816;20.538;2023-08-06T07:03:15;19.92;;;11.98;;
66175;SDS011;52977;44.816;20.538;2023-08-06T07:05:41;16.77;;;8.38;;
66175;SDS011;52977;44.816;20.538;2023-08-06T07:08:09;14.18;;;7.80;;
66175;SDS011;52977;44.816;20.538;2023-08-06T07:10:34;10.52;;;6.65;;
66175;SDS011;52977;44.816;20.538;2023-08-06T07:13:00;16.40;;;8.82;;
66175;SDS011;52977;44.816;20.538;2023-08-06T07:15:25;13.00;;;7.82;;
66175;SDS011;52977;44.816;20.538;2023-08-06T07:17:51;13.30;;;8.10;;
66175;SDS011;52977;44.816;20.538;2023-08-06T07:20:17;14.45;;;7.55;;
66175;SDS011;52977;44.816;20.538;2023-08-06T07:22:44;14.60;;;7.38;;
66175;SDS011;52977;44.816;20.538;2023-08-06T07:25:10;13.25;;;6.93;;
66175;SDS011;52977;44.816;20.538;2023-08-06T07:27:36;12.93;;;6.80;;
66175;SDS011;52977;44.816;20.538;2023-08-06T07:30:03;12.88;;;7.28;;
66175;SDS011;52977;44.816;20.538;2023-08-06T07:32:31;15.18;;;7.38;;
66175;SDS011;52977;44.816;20.538;2023-08-06T07:34:57;13.40;;;7.57;;
66175;SDS011;52977;44.816;20.538;2023-08-06T07:37:25;14.07;;;7.82;;
66175;SDS011;52977;44.816;20.538;2023-08-06T07:39:54;16.00;;;9.00;;
66175;SDS011;52977;44.816;20.538;2023-08-06T07:42:20;13.27;;;7.80;;
66175;SDS011;52977;44.816;20.538;2023-08-06T07:44:53;13.40;;;8.20;;
66175;SDS011;52977;44.816;20.538;2023-08-06T07:47:21;12.25;;;7.65;;
66175;SDS011;52977;44.816;20.538;2023-08-06T07:49:47;14.85;;;7.57;;
66175;SDS011;52977;44.816;20.538;2023-08-06T07:52:13;16.25;;;8.02;;
66175;SDS011;52977;44.816;20.538;2023-08-06T07:54:39;12.30;;;7.30;;
66175;SDS011;52977;44.816;20.538;2023-08-06T07:57:05;14.40;;;7.68;;
66175;SDS011;52977;44.816;20.538;2023-08-06T07:59:30;11.52;;;6.63;;
66175;SDS011;52977;44.816;20.538;2023-08-06T08:01:57;10.73;;;6.57;;
66175;SDS011;52977;44.816;20.538;2023-08-06T08:04:23;11.90;;;6.93;;
66175;SDS011;52977;44.816;20.538;2023-08-06T08:06:49;10.23;;;6.63;;
66175;SDS011;52977;44.816;20.538;2023-08-06T08:09:14;9.82;;;6.30;;
66175;SDS011;52977;44.816;20.538;2023-08-06T08:11:41;10.43;;;6.43;;
66175;SDS011;52977;44.816;20.538;2023-08-06T08:14:08;22.52;;;7.60;;
66175;SDS011;52977;44.816;20.538;2023-08-06T08:16:34;28.27;;;8.73;;
66175;SDS011;52977;44.816;20.538;2023-08-06T08:19:00;27.75;;;7.72;;
66175;SDS011;52977;44.816;20.538;2023-08-06T08:21:26;56.38;;;10.68;;
66175;SDS011;52977;44.816;20.538;2023-08-06T08:23:52;18.75;;;6.25;;
66175;SDS011;52977;44.816;20.538;2023-08-06T08:26:19;11.18;;;5.60;;
66175;SDS011;52977;44.816;20.538;2023-08-06T08:28:45;6.55;;;3.72;;
66175;SDS011;52977;44.816;20.538;2023-08-06T08:31:11;7.18;;;3.80;;
66175;SDS011;52977;44.816;20.538;2023-08-06T08:33:39;9.48;;;3.22;;
66175;SDS011;52977;44.816;20.538;2023-08-06T08:36:06;7.55;;;3.78;;
66175;SDS011;52977;44.816;20.538;2023-08-06T08:38:32;6.13;;;2.90;;
66175;SDS011;52977;44.816;20.538;2023-08-06T08:40:58;7.75;;;3.20;;
66175;SDS011;52977;44.816;20.538;2023-08-06T08:43:24;5.05;;;2.42;;
66175;SDS011;52977;44.816;20.538;2023-08-06T08:45:50;4.95;;;2.40;;
66175;SDS011;52977;44.816;20.538;2023-08-06T08:48:18;3.95;;;2.05;;
66175;SDS011;52977;44.816;20.538;2023-08-06T08:50:45;3.15;;;1.65;;
66175;SDS011;52977;44.816;20.538;2023-08-06T08:53:15;3.60;;;1.90;;
66175;SDS011;52977;44.816;20.538;2023-08-06T08:55:43;2.80;;;1.58;;
66175;SDS011;52977;44.816;20.538;2023-08-06T08:58:12;3.40;;;1.40;;
66175;SDS011;52977;44.816;20.538;2023-08-06T09:00:39;3.30;;;1.45;;
66175;SDS011;52977;44.816;20.538;2023-08-06T09:03:11;3.42;;;1.70;;
66175;SDS011;52977;44.816;20.538;2023-08-06T09:05:38;4.43;;;1.38;;
66175;SDS011;52977;44.816;20.538;2023-08-06T09:08:10;3.30;;;1.70;;
66175;SDS011;52977;44.816;20.538;2023-08-06T09:10:39;3.40;;;1.70;;
66175;SDS011;52977;44.816;20.538;2023-08-06T09:13:06;5.05;;;2.35;;
66175;SDS011;52977;44.816;20.538;2023-08-06T09:15:34;4.13;;;2.15;;
66175;SDS011;52977;44.816;20.538;2023-08-06T09:18:00;10.60;;;2.40;;
66175;SDS011;52977;44.816;20.538;2023-08-06T09:20:35;4.50;;;1.85;;
66175;SDS011;52977;44.816;20.538;2023-08-06T09:23:09;5.57;;;2.00;;
66175;SDS011;52977;44.816;20.538;2023-08-06T09:25:39;3.92;;;1.95;;
66175;SDS011;52977;44.816;20.538;2023-08-06T09:28:06;4.80;;;1.95;;
66175;SDS011;52977;44.816;20.538;2023-08-06T09:30:33;4.28;;;1.90;;
66175;SDS011;52977;44.816;20.538;2023-08-06T09:33:01;4.10;;;1.88;;
66175;SDS011;52977;44.816;20.538;2023-08-06T09:35:31;4.18;;;1.90;;
66175;SDS011;52977;44.816;20.538;2023-08-06T09:38:07;4.03;;;1.93;;
66175;SDS011;52977;44.816;20.538;2023-08-06T09:40:35;6.88;;;2.20;;
66175;SDS011;52977;44.816;20.538;2023-08-06T09:43:01;4.32;;;2.28;;
66175;SDS011;52977;44.816;20.538;2023-08-06T09:45:37;4.97;;;1.90;;
66175;SDS011;52977;44.816;20.538;2023-08-06T09:48:04;4.15;;;1.80;;
66175;SDS011;52977;44.816;20.538;2023-08-06T09:50:34;4.93;;;2.00;;
66175;SDS011;52977;44.816;20.538;2023-08-06T09:53:02;4.88;;;1.90;;
66175;SDS011;52977;44.816;20.538;2023-08-06T09:55:30;4.38;;;1.88;;
66175;SDS011;52977;44.816;20.538;2023-08-06T09:57:56;4.40;;;1.70;;
66175;SDS011;52977;44.816;20.538;2023-08-06T10:00:24;5.10;;;1.80;;
66175;SDS011;52977;44.816;20.538;2023-08-06T10:02:52;3.63;;;2.05;;
66175;SDS011;52977;44.816;20.538;2023-08-06T10:05:22;5.30;;;2.95;;
66175;SDS011;52977;44.816;20.538;2023-08-06T10:07:49;3.85;;;2.08;;
66175;SDS011;52977;44.816;20.538;2023-08-06T10:10:17;4.97;;;1.85;;
66175;SDS011;52977;44.816;20.538;2023-08-06T10:12:52;3.40;;;1.95;;
66175;SDS011;52977;44.816;20.538;2023-08-06T10:15:24;5.38;;;2.03;;
66175;SDS011;52977;44.816;20.538;2023-08-06T10:17:53;3.70;;;1.83;;
66175;SDS011;52977;44.816;20.538;2023-08-06T10:20:22;5.25;;;1.77;;
66175;SDS011;52977;44.816;20.538;2023-08-06T10:23:01;6.10;;;1.90;;
66175;SDS011;52977;44.816;20.538;2023-08-06T10:25:33;4.97;;;1.83;;
66175;SDS011;52977;44.816;20.538;2023-08-06T10:28:00;5.03;;;1.70;;
66175;SDS011;52977;44.816;20.538;2023-08-06T10:30:34;4.78;;;1.80;;
66175;SDS011;52977;44.816;20.538;2023-08-06T10:33:07;3.83;;;1.70;;
66175;SDS011;52977;44.816;20.538;2023-08-06T10:35:37;3.00;;;1.63;;
66175;SDS011;52977;44.816;20.538;2023-08-06T10:38:12;9.18;;;4.38;;
66175;SDS011;52977;44.816;20.538;2023-08-06T10:40:40;4.32;;;2.08;;
66175;SDS011;52977;44.816;20.538;2023-08-06T10:43:08;3.72;;;1.80;;
66175;SDS011;52977;44.816;20.538;2023-08-06T10:45:58;2.60;;;1.40;;
66175;SDS011;52977;44.816;20.538;2023-08-06T10:48:28;3.13;;;1.40;;
66175;SDS011;52977;44.816;20.538;2023-08-06T10:51:15;3.55;;;1.55;;
66175;SDS011;52977;44.816;20.538;2023-08-06T10:53:42;5.15;;;1.63;;
66175;SDS011;52977;44.816;20.538;2023-08-06T10:56:15;3.00;;;1.50;;
66175;SDS011;52977;44.816;20.538;2023-08-06T10:58:42;3.13;;;1.55;;
66175;SDS011;52977;44.816;20.538;2023-08-06T11:01:10;4.95;;;1.40;;
66175;SDS011;52977;44.816;20.538;2023-08-06T11:03:37;3.92;;;1.38;;
66175;SDS011;52977;44.816;20.538;2023-08-06T11:06:04;4.20;;;2.35;;
66175;SDS011;52977;44.816;20.538;2023-08-06T11:08:35;10.43;;;6.40;;
66175;SDS011;52977;44.816;20.538;2023-08-06T11:11:11;5.35;;;1.67;;
66175;SDS011;52977;44.816;20.538;2023-08-06T11:13:40;3.13;;;1.50;;
66175;SDS011;52977;44.816;20.538;2023-08-06T11:16:06;5.57;;;2.30;;
66175;SDS011;52977;44.816;20.538;2023-08-06T11:18:33;2.63;;;1.27;;
66175;SDS011;52977;44.816;20.538;2023-08-06T11:21:00;3.28;;;1.65;;
66175;SDS011;52977;44.816;20.538;2023-08-06T11:23:27;3.00;;;1.60;;
66175;SDS011;52977;44.816;20.538;2023-08-06T11:25:57;3.03;;;1.50;;
66175;SDS011;52977;44.816;20.538;2023-08-06T11:28:23;4.57;;;2.00;;
66175;SDS011;52977;44.816;20.538;2023-08-06T11:30:50;3.28;;;1.80;;
66175;SDS011;52977;44.816;20.538;2023-08-06T11:35:50;4.85;;;2.03;;
66175;SDS011;52977;44.816;20.538;2023-08-06T11:38:17;2.38;;;1.30;;
66175;SDS011;52977;44.816;20.538;2023-08-06T11:40:44;3.10;;;1.58;;
66175;SDS011;52977;44.816;20.538;2023-08-06T11:43:14;2.97;;;1.42;;
66175;SDS011;52977;44.816;20.538;2023-08-06T11:45:40;3.42;;;1.33;;
66175;SDS011;52977;44.816;20.538;2023-08-06T11:48:07;3.30;;;1.70;;
66175;SDS011;52977;44.816;20.538;2023-08-06T11:50:37;4.90;;;2.10;;
66175;SDS011;52977;44.816;20.538;2023-08-06T11:53:06;4.10;;;1.98;;
66175;SDS011;52977;44.816;20.538;2023-08-06T11:55:33;3.28;;;1.60;;
66175;SDS011;52977;44.816;20.538;2023-08-06T11:58:02;3.58;;;1.50;;
66175;SDS011;52977;44.816;20.538;2023-08-06T12:00:30;4.10;;;1.90;;
66175;SDS011;52977;44.816;20.538;2023-08-06T12:02:56;6.47;;;3.55;;
66175;SDS011;52977;44.816;20.538;2023-08-06T12:05:23;4.13;;;1.52;;
66175;SDS011;52977;44.816;20.538;2023-08-06T12:07:55;3.50;;;1.58;;
66175;SDS011;52977;44.816;20.538;2023-08-06T12:10:22;3.40;;;1.77;;
66175;SDS011;52977;44.816;20.538;2023-08-06T12:12:50;2.88;;;1.42;;
66175;SDS011;52977;44.816;20.538;2023-08-06T12:15:16;3.78;;;1.60;;
66175;SDS011;52977;44.816;20.538;2023-08-06T12:17:42;7.45;;;3.63;;
66175;SDS011;52977;44.816;20.538;2023-08-06T12:20:09;6.25;;;2.55;;
66175;SDS011;52977;44.816;20.538;2023-08-06T12:22:36;6.13;;;1.67;;
66175;SDS011;52977;44.816;20.538;2023-08-06T12:25:08;5.35;;;2.30;;
66175;SDS011;52977;44.816;20.538;2023-08-06T12:27:37;3.83;;;1.42;;
66175;SDS011;52977;44.816;20.538;2023-08-06T12:30:05;5.05;;;2.05;;
66175;SDS011;52977;44.816;20.538;2023-08-06T12:32:34;3.30;;;1.40;;
66175;SDS011;52977;44.816;20.538;2023-08-06T12:35:00;2.63;;;1.40;;
66175;SDS011;52977;44.816;20.538;2023-08-06T12:37:27;2.83;;;1.20;;
66175;SDS011;52977;44.816;20.538;2023-08-06T12:39:52;2.05;;;1.05;;
66175;SDS011;52977;44.816;20.538;2023-08-06T12:42:18;4.20;;;1.25;;
66175;SDS011;52977;44.816;20.538;2023-08-06T12:44:45;2.00;;;1.13;;
66175;SDS011;52977;44.816;20.538;2023-08-06T12:47:11;3.22;;;1.38;;
66175;SDS011;52977;44.816;20.538;2023-08-06T12:49:37;13.93;;;4.30;;
66175;SDS011;52977;44.816;20.538;2023-08-06T12:52:03;7.03;;;2.95;;
66175;SDS011;52977;44.816;20.538;2023-08-06T12:54:32;10.52;;;4.13;;
66175;SDS011;52977;44.816;20.538;2023-08-06T12:57:02;7.03;;;3.20;;
66175;SDS011;52977;44.816;20.538;2023-08-06T12:59:29;5.53;;;1.92;;
66175;SDS011;52977;44.816;20.538;2023-08-06T13:01:55;7.40;;;2.40;;
66175;SDS011;52977;44.816;20.538;2023-08-06T13:04:21;9.45;;;3.28;;
66175;SDS011;52977;44.816;20.538;2023-08-06T13:06:47;3.72;;;1.50;;
66175;SDS011;52977;44.816;20.538;2023-08-06T13:09:14;2.75;;;1.42;;
66175;SDS011;52977;44.816;20.538;2023-08-06T13:11:41;4.88;;;1.77;;
66175;SDS011;52977;44.816;20.538;2023-08-06T13:14:08;8.57;;;4.10;;
66175;SDS011;52977;44.816;20.538;2023-08-06T13:16:36;4.18;;;2.00;;
66175;SDS011;52977;44.816;20.538;2023-08-06T13:19:04;8.50;;;2.70;;
66175;SDS011;52977;44.816;20.538;2023-08-06T13:24:06;6.72;;;2.78;;
66175;SDS011;52977;44.816;20.538;2023-08-06T13:26:33;7.43;;;3.50;;
66175;SDS011;52977;44.816;20.538;2023-08-06T13:29:00;3.03;;;1.33;;
66175;SDS011;52977;44.816;20.538;2023-08-06T13:31:26;3.38;;;1.20;;
66175;SDS011;52977;44.816;20.538;2023-08-06T13:33:54;3.28;;;1.20;;
66175;SDS011;52977;44.816;20.538;2023-08-06T13:36:21;2.83;;;1.33;;
66175;SDS011;52977;44.816;20.538;2023-08-06T13:38:48;4.03;;;1.20;;
66175;SDS011;52977;44.816;20.538;2023-08-06T13:41:15;2.65;;;1.00;;
66175;SDS011;52977;44.816;20.538;2023-08-06T13:43:42;3.38;;;1.00;;
66175;SDS011;52977;44.816;20.538;2023-08-06T13:46:10;3.10;;;1.30;;
66175;SDS011;52977;44.816;20.538;2023-08-06T13:48:42;3.67;;;1.92;;
66175;SDS011;52977;44.816;20.538;2023-08-06T13:51:09;3.80;;;1.85;;
66175;SDS011;52977;44.816;20.538;2023-08-06T13:53:36;4.10;;;1.33;;
66175;SDS011;52977;44.816;20.538;2023-08-06T13:56:06;3.60;;;1.50;;
66175;SDS011;52977;44.816;20.538;2023-08-06T13:58:36;3.28;;;1.70;;
66175;SDS011;52977;44.816;20.538;2023-08-06T14:01:02;3.25;;;1.70;;
66175;SDS011;52977;44.816;20.538;2023-08-06T14:03:28;4.03;;;1.80;;
66175;SDS011;52977;44.816;20.538;2023-08-06T14:05:55;6.60;;;2.63;;
66175;SDS011;52977;44.816;20.538;2023-08-06T14:08:22;3.33;;;1.55;;
66175;SDS011;52977;44.816;20.538;2023-08-06T14:10:49;9.52;;;5.00;;
66175;SDS011;52977;44.816;20.538;2023-08-06T14:13:19;4.83;;;1.10;;
66175;SDS011;52977;44.816;20.538;2023-08-06T14:15:45;1.65;;;0.80;;
66175;SDS011;52977;44.816;20.538;2023-08-06T14:18:15;3.58;;;1.20;;
66175;SDS011;52977;44.816;20.538;2023-08-06T14:20:42;3.22;;;1.25;;
66175;SDS011;52977;44.816;20.538;2023-08-06T14:23:08;6.30;;;1.42;;
66175;SDS011;52977;44.816;20.538;2023-08-06T14:25:35;3.72;;;1.23;;
66175;SDS011;52977;44.816;20.538;2023-08-06T14:28:01;2.10;;;1.10;;
66175;SDS011;52977;44.816;20.538;2023-08-06T14:30:28;5.65;;;1.63;;
66175;SDS011;52977;44.816;20.538;2023-08-06T14:32:53;7.40;;;1.70;;
66175;SDS011;52977;44.816;20.538;2023-08-06T14:35:19;4.80;;;1.58;;
66175;SDS011;52977;44.816;20.538;2023-08-06T14:37:45;6.88;;;2.00;;
66175;SDS011;52977;44.816;20.538;2023-08-06T14:40:11;6.10;;;1.65;;
66175;SDS011;52977;44.816;20.538;2023-08-06T14:42:38;5.13;;;1.80;;
66175;SDS011;52977;44.816;20.538;2023-08-06T14:45:04;2.78;;;1.13;;
66175;SDS011;52977;44.816;20.538;2023-08-06T14:47:31;3.60;;;1.10;;